Etusivu
METAR-TAF:

METAR-TAF

Lentoasemat :

Kaltag, Alaska, Yhdysvallat

Leveyspiiri: 64-19N, Pituuspiiri: 158-44W, korkeus merenpinnasta: 54 m

Tämänhetkinen sää

Tämä raportti tehtiin 31 minuuttia sitten, kello 21.53 UTC
tyyntä
Lämpötila 13°C
Kosteus 72%
Ilmanpaine 1011 hPa
Näkyvyys: 16.1 km
Muutamia pilviä 1800 ft:n korkeudessa
Hajonneita pilviä 3000 ft:n korkeudessa
Pilvistä 6500 ft:n korkeudessa

METAR: PAKV 172153Z AUTO 00000KT 10SM FEW018 BKN030 OVC065 13/08 A2985 RMK AO2 RAB11E33 SLP109 P0001 T01280083 TSNO

Aika: 14:24 (22:24 UTC)


TAF: puuttuu

Säähavainnot ja -ennusteet yli 4000 lentoasemalta (METAR- ja TAF-raportit).

Käytössä olevat sääasemat on merkitty karttaan keltaisilla ja punaisilla pisteillä.

Aseta hiiri pisteen päälle nähdäksesi sääaseman nimen.

Klikkaa sitten nähdäksesi säähavainnot ja -ennusteet.

Kartan vaihtaminen: klikkaa mustalla rastilla varustettuja vihreitä pisteitä, niin voit zoomata sisään; viivalla varustettua vihreää pistettä, niin voit zoomata ulos tai vihreitä nuolia, niin pääset viereisille kartoille.


METAR-TAF: